Flight Track Log - Related Links

Times and Time Zones

All times are in EDT time to prevent confusion due to time zone crossing. See the N544PS flight status page for this flight to view local times or setup timezone preferences in your user account.

Time Position Orientation Groundspeed Altitude Reporting Facility
EDT Latitude Longitude Course Direction KTS MPH feet Rate Location/Type
Mon 06:18:29 PM 33.8500 -116.5167 309° West 170 196 1,400  Level Southern California TRACON
Mon 06:19:29 PM 33.8833 -116.5667 309° West 183 211 3,600 2,050 Climbing Southern California TRACON
Mon 06:20:29 PM 33.9333 -116.5500 15° North 223 257 5,500 2,047 Climbing Southern California TRACON
Mon 06:21:38 PM 33.9914 -116.5256 19° North 203 234 8,000 2,153 Climbing Los Angeles Center
Mon 06:22:40 PM 34.0553 -116.5219 North 217 250 10,200 2,323 Climbing Los Angeles Center
Mon 06:23:42 PM 34.1269 -116.5300 355° North 237 273 12,800 2,274 Climbing Los Angeles Center
Mon 06:24:44 PM 34.1931 -116.5567 342° North 249 287 14,900 2,032 Climbing Los Angeles Center
Mon 06:25:46 PM 34.2611 -116.5814 343° North 254 292 17,000 2,081 Climbing Los Angeles Center
Mon 06:26:48 PM 34.3303 -116.6094 341° North 260 299 19,200 1,440 Climbing Los Angeles Center
Mon 06:27:51 PM 34.4047 -116.6394 342° North 280 322 20,000 384 Climbing Los Angeles Center
Mon 06:28:53 PM 34.4908 -116.6825 338° Northwest 333 383 20,000 484 Level Los Angeles Center
Mon 06:29:55 PM 34.5203 -116.8200 285° West 351 404 21,000 1,258 Climbing Los Angeles Center
Mon 06:30:57 PM 34.5278 -116.9347 275° West 343 395 22,600 1,548 Climbing Los Angeles Center
Mon 06:31:59 PM 34.5383 -117.0447 277° West 332 382 24,200 1,452 Climbing Los Angeles Center
Mon 06:33:01 PM 34.5489 -117.1550 277° West 329 379 25,600 871 Climbing Los Angeles Center
Mon 06:34:03 PM 34.5597 -117.2678 277° West 334 384 26,000 726 Climbing Los Angeles Center
Mon 06:35:05 PM 34.5706 -117.3886 276° West 355 409 27,100 1,355 Climbing Los Angeles Center
Mon 06:36:07 PM 34.5831 -117.5297 276° West 351 404 28,800 1,392 Climbing Los Angeles Center
Mon 06:37:10 PM 34.5928 -117.6431 276° West 342 394 30,000 576 Climbing Los Angeles Center
Mon 06:38:12 PM 34.6042 -117.7608 277° West 349 402 30,000  Level Los Angeles Center
Mon 06:39:14 PM 34.6133 -117.8892 275° West 374 430 30,000  Level Los Angeles Center
Mon 06:40:16 PM 34.6261 -118.0192 277° West 382 440 30,000 532 Level Los Angeles Center
Mon 06:41:18 PM 34.6778 -118.1333 299° West 386 444 31,100 1,452 Climbing Los Angeles Center
Mon 06:42:20 PM 34.7411 -118.2219 311° West 346 398 33,000 1,403 Climbing Los Angeles Center
Mon 06:43:22 PM 34.8103 -118.3244 309° West 326 375 34,000 484 Climbing Los Angeles Center
Mon 06:44:24 PM 34.8742 -118.4167 310° West 350 403 34,000  Level Los Angeles Center
Mon 06:45:26 PM 34.9342 -118.5042 310° West 362 417 34,000  Level Los Angeles Center
Mon 06:46:28 PM 35.0225 -118.6100 316° Northwest 370 426 34,000 48 Level Los Angeles Center
Mon 06:47:30 PM 35.1169 -118.6586 337° Northwest 371 427 34,100 823 Climbing Los Angeles Center
Mon 06:48:32 PM 35.2139 -118.6931 344° North 364 419 35,700 1,403 Climbing Los Angeles Center
Mon 06:49:34 PM 35.3000 -118.7281 342° North 337 388 37,000 968 Climbing Los Angeles Center
Mon 06:50:36 PM 35.3847 -118.7633 341° North 325 374 37,700 576 Climbing Los Angeles Center
Mon 06:51:39 PM 35.4722 -118.7989 342° North 328 377 38,200 480 Climbing Los Angeles Center
Mon 06:52:41 PM 35.5867 -118.8431 343° North 357 411 38,700 435 Climbing Los Angeles Center
Mon 06:53:43 PM 35.6814 -118.8811 342° North 360 414 39,100 532 Climbing Los Angeles Center
Mon 06:54:45 PM 35.7750 -118.9206 341° North 356 410 39,800 435 Climbing Los Angeles Center
Mon 06:55:47 PM 35.8675 -118.9575 342° North 353 406 40,000 98 Climbing Los Angeles Center
Mon 06:56:47 PM 35.9608 -118.9944 342° North 358 412 40,000  Level Oakland Center
Mon 06:57:48 PM 36.0558 -119.0331 342° North 360 414 40,000  Level Oakland Center
Mon 06:58:49 PM 36.1503 -119.0703 342° North 359 413 40,000  Level Oakland Center
Mon 06:59:50 PM 36.2631 -119.1164 342° North 357 411 40,000  Level Oakland Center
Mon 07:00:52 PM 36.3592 -119.1564 341° North 358 412 40,000  Level Oakland Center
Mon 07:01:53 PM 36.4528 -119.1944 342° North 356 410 40,000  Level Oakland Center
Mon 07:02:54 PM 36.5461 -119.2336 341° North 354 407 40,000  Level Oakland Center
Mon 07:03:55 PM 36.6392 -119.2714 342° North 353 406 40,000  Level Oakland Center
Mon 07:04:56 PM 36.7317 -119.3097 342° North 351 404 40,000  Level Oakland Center
Mon 07:05:58 PM 36.8242 -119.3500 341° North 352 405 40,000  Level Oakland Center
Mon 07:06:59 PM 36.9144 -119.3878 342° North 347 399 40,000  Level Oakland Center
Mon 07:08:00 PM 37.0036 -119.4250 342° North 341 392 40,000  Level Oakland Center
Mon 07:09:01 PM 37.1083 -119.4706 341° North 335 386 40,000  Level Oakland Center
Mon 07:10:02 PM 37.1964 -119.5061 342° North 332 382 40,000  Level Oakland Center
Mon 07:11:04 PM 37.2825 -119.5428 341° North 327 376 40,000  Level Oakland Center
Mon 07:12:05 PM 37.3678 -119.5783 342° North 333 383 40,000  Level Oakland Center
Mon 07:14:07 PM 37.5442 -119.6528 342° North 337 388 40,000  Level Oakland Center
Mon 07:15:08 PM 37.6322 -119.6867 343° North 328 377 40,000  Level Oakland Center
Mon 07:16:10 PM 37.7208 -119.7233 342° North 336 387 40,000  Level Oakland Center
Mon 07:17:11 PM 37.8283 -119.7697 341° North 339 390 40,000  Level Oakland Center
Mon 07:18:12 PM 37.9194 -119.8086 341° North 344 396 40,000  Level Oakland Center
Mon 07:19:13 PM 38.0081 -119.8467 341° North 340 391 40,000  Level Oakland Center
Mon 07:20:15 PM 38.0992 -119.8847 342° North 341 392 40,000  Level Oakland Center
Mon 07:21:16 PM 38.1867 -119.9242 340° North 338 389 40,000  Level Oakland Center
Mon 07:22:17 PM 38.2761 -119.9617 342° North 339 390 40,000  Level Oakland Center
Mon 07:23:19 PM 38.3656 -120.0022 340° North 342 394 40,000  Level Oakland Center
Mon 07:24:20 PM 38.4581 -120.0411 342° North 347 399 40,000  Level Oakland Center
Mon 07:25:21 PM 38.5486 -120.0800 341° North 347 399 40,000  Level Oakland Center
Mon 07:26:22 PM 38.6550 -120.1267 341° North 340 391 40,000  Level Oakland Center
Mon 07:27:24 PM 38.7428 -120.1661 341° North 336 387 40,000  Level Oakland Center
Mon 07:28:25 PM 38.8333 -120.2056 341° North 343 395 40,000  Level Oakland Center
Mon 07:29:26 PM 38.9228 -120.2453 341° North 341 392 40,000  Level Oakland Center
Mon 07:30:28 PM 39.0108 -120.2844 341° North 339 390 40,000  Level Oakland Center
Mon 07:31:29 PM 39.1011 -120.3244 341° North 342 394 40,000  Level Oakland Center
Mon 07:32:30 PM 39.1911 -120.3636 341° North 343 395 40,000  Level Oakland Center
Mon 07:33:31 PM 39.2792 -120.4028 341° North 337 388 40,000  Level Oakland Center
Mon 07:34:33 PM 39.3669 -120.4433 340° North 336 387 40,000  Level Oakland Center
Mon 07:35:34 PM 39.4750 -120.4906 341° North 341 392 40,000  Level Oakland Center
Mon 07:36:35 PM 39.5639 -120.5303 341° North 340 391 40,000  Level Oakland Center
Mon 07:37:37 PM 39.6544 -120.5719 340° North 344 396 40,000  Level Oakland Center
Mon 07:38:38 PM 39.7439 -120.6111 341° North 341 392 40,000  Level Oakland Center
Mon 07:39:39 PM 39.8333 -120.6539 340° North 342 394 40,000  Level Oakland Center
Mon 07:40:40 PM 39.9247 -120.6942 341° North 347 399 40,000  Level Oakland Center
Mon 07:41:42 PM 40.0253 -120.7389 341° North 343 395 40,000  Level Oakland Center
Mon 07:42:43 PM 40.1156 -120.7814 340° North 346 398 40,000  Level Oakland Center
Mon 07:43:44 PM 40.2053 -120.8206 342° North 344 396 40,000  Level Oakland Center
Mon 07:44:45 PM 40.2967 -120.8636 340° North 349 402 40,000  Level Oakland Center
Mon 07:45:47 PM 40.3869 -120.9056 341° North 344 396 40,000  Level Oakland Center
Mon 07:46:48 PM 40.4769 -120.9464 341° North 344 396 40,000  Level Oakland Center
Mon 07:47:49 PM 40.5775 -120.9953 340° North 344 396 40,000  Level Oakland Center
Mon 07:48:37 PM 40.6511 -121.0261 342° North 347 399 40,000  Level Seattle Center
Mon 07:49:37 PM 40.7386 -121.0672 340° North 337 388 40,000  Level Seattle Center
Mon 07:50:38 PM 40.8253 -121.1083 340° North 331 381 40,000  Level Seattle Center
Mon 07:51:39 PM 40.9128 -121.1497 340° North 333 383 40,000  Level Seattle Center
Mon 07:52:40 PM 40.9989 -121.1903 340° North 331 381 40,000  Level Seattle Center
Mon 07:53:41 PM 41.0839 -121.2308 340° North 326 375 40,000  Level Seattle Center
Mon 07:54:42 PM 41.1697 -121.2711 341° North 327 376 40,000  Level Seattle Center
Mon 07:55:42 PM 41.2561 -121.3122 340° North 328 377 40,000  Level Seattle Center
Mon 07:56:43 PM 41.3422 -121.3539 340° North 330 380 40,000  Level Seattle Center
Mon 07:57:44 PM 41.4269 -121.3953 340° North 326 375 40,000  Level Seattle Center
Mon 07:58:45 PM 41.5125 -121.4364 340° North 327 376 40,000  Level Seattle Center
Mon 07:59:46 PM 41.5997 -121.4778 340° North 331 381 40,000  Level Seattle Center
Mon 08:00:47 PM 41.6847 -121.5189 340° North 327 376 40,000  Level Seattle Center
Mon 08:01:47 PM 41.7714 -121.5606 340° North 331 381 40,000  Level Seattle Center
Mon 08:02:48 PM 41.8744 -121.6097 340° North 328 377 40,000  Level Seattle Center
Mon 08:03:49 PM 41.9600 -121.6503 341° North 328 377 40,000  Level Seattle Center
Mon 08:04:50 PM 42.0444 -121.6914 340° North 328 377 40,000  Level Seattle Center
Mon 08:05:51 PM 42.1292 -121.7336 340° North 330 380 40,000  Level Seattle Center
Mon 08:06:52 PM 42.2144 -121.7742 341° North 329 379 40,000  Level Seattle Center
Mon 08:07:53 PM 42.2992 -121.8156 340° North 328 377 40,000  Level Seattle Center
Mon 08:08:54 PM 42.3833 -121.8575 340° North 326 375 40,000  Level Seattle Center
Mon 08:09:55 PM 42.4692 -121.9000 340° North 328 377 40,000  Level Seattle Center
Mon 08:10:55 PM 42.5544 -121.9419 340° North 328 377 40,000  Level Seattle Center
Mon 08:11:56 PM 42.6417 -121.9847 340° North 332 382 40,000  Level Seattle Center
Mon 08:12:57 PM 42.7456 -122.0356 340° North 332 382 40,000  Level Seattle Center
Mon 08:13:58 PM 42.8353 -122.0750 342° North 338 389 40,000  Level Seattle Center
Mon 08:14:59 PM 42.9292 -122.0972 350° North 342 394 40,000  Level Seattle Center
Mon 08:16:00 PM 43.0217 -122.1231 348° North 341 392 40,000  Level Seattle Center
Mon 08:17:01 PM 43.1161 -122.1472 349° North 343 395 40,000  Level Seattle Center
Mon 08:18:02 PM 43.2094 -122.1728 349° North 342 394 40,000  Level Seattle Center
Mon 08:19:03 PM 43.2975 -122.1969 349° North 346 398 40,000  Level Seattle Center
Mon 08:20:04 PM 43.3917 -122.2219 349° North 346 398 40,000  Level Seattle Center
Mon 08:21:04 PM 43.5044 -122.2550 348° North 346 398 40,000  Level Seattle Center
Mon 08:22:05 PM 43.5983 -122.2800 349° North 346 398 40,000  Level Seattle Center
Mon 08:23:06 PM 43.6900 -122.3050 349° North 339 390 40,000  Level Seattle Center
Mon 08:24:07 PM 43.7817 -122.3319 348° North 339 390 40,000 -295 Level Seattle Center
Mon 08:25:08 PM 43.8725 -122.3572 349° North 335 386 39,400 -1,033 Descending Seattle Center
Mon 08:26:09 PM 43.9606 -122.3817 349° North 325 374 37,900 -1,574 Descending Seattle Center
Mon 08:27:10 PM 44.0456 -122.4050 349° North 315 362 36,200 -1,721 Descending Seattle Center
Mon 08:28:11 PM 44.1311 -122.4311 348° North 316 364 34,400 -1,721 Descending Seattle Center
Mon 08:29:12 PM 44.2186 -122.4547 349° North 321 369 32,700 -1,672 Descending Seattle Center
Mon 08:30:13 PM 44.3039 -122.4794 348° North 317 365 31,000 -1,721 Descending Seattle Center
Mon 08:31:14 PM 44.3897 -122.5042 348° North 316 364 29,200 -1,934 Descending Seattle Center
Mon 08:32:14 PM 44.4789 -122.5303 348° North 327 376 27,100 -2,281 Descending Seattle Center
Mon 08:33:15 PM 44.5889 -122.5619 348° North 337 388 24,600 -2,213 Descending Seattle Center
Mon 08:34:16 PM 44.6803 -122.5881 349° North 337 388 22,600 -2,019 Descending Seattle Center
Mon 08:35:02 PM 44.7467 -122.6078 348° North 308 354 21,000 -2,066 Descending Seattle Center
Mon 08:35:17 PM 44.7642 -122.6119 350° North 316 364 20,500 -2,818 Descending Seattle Center
Mon 08:36:08 PM 44.8294 -122.6322 348° North 287 330 17,900 -3,482 Descending Seattle Center
Mon 08:37:09 PM 44.9053 -122.6533 349° North 274 315 14,000 -3,393 Descending Seattle Center
Mon 08:38:10 PM 44.9811 -122.6106 22° Northeast 296 341 11,000 -2,754 Descending Seattle Center
Mon 08:39:11 PM 45.0597 -122.5606 24° Northeast 285 328 8,400 -2,016 Descending Seattle Center
Mon 08:40:12 PM 45.1228 -122.5289 20° North 227 261 6,900 -689 Descending Seattle Center
Mon 08:41:13 PM 45.1869 -122.5028 16° North 236 272 7,000 -273 Climbing Seattle Center
Mon 08:42:24 PM 45.2547 -122.4764 15° North 243 280 6,300 -595 Descending Seattle Center
Mon 08:43:14 PM 45.3281 -122.4511 14° North 271 312 5,800 -865 Descending Seattle Center
Mon 08:44:15 PM 45.3967 -122.4261 14° North 235 270 4,700 -1,475 Descending Seattle Center
Mon 08:45:16 PM 45.4553 -122.4050 14° North 210 242 2,800 -1,200 Descending Seattle Center
Mon 08:46:10 PM 45.5031 -122.3944 North 172 198 2,400 -500 Descending Seattle Center
Mon 08:46:28 PM 45.5108 -122.4003 332° Northwest 184 212 2,200 -358 Descending Seattle Center
Mon 08:47:17 PM 45.5319 -122.4411 306° West 144 166 2,000 -621 Descending Seattle Center
Mon 08:48:24 PM 45.5572 -122.5017 301° West 156 180 1,000 -738 Descending Seattle Center
Mon 08:49:19 PM 45.5719 -122.5419 298° West 136 157 500 -545 Descending Seattle Center
Mon 08:51:00 PM 45.5833 -122.5833 North  Level FlightAware Approximate

Login

Don't have an account? Register now (free) for customized features, flight alerts, and more!